logo dgac
Viernes 01 de Julio del 2022
Buscar por aerodromo o helipuerto
Ingrese nombre de aeródromo, localidad o designador OACI:
TAF: TAF SCPD 011100Z 0112/0124 VRB02KT 9999 SCT050 BKN100 TX12/0118Z TN04/0112Z TEMPO 0112/0116 18008KT 7000 RA BKN030 BKN050 BECMG 0116/0118 9999 SHRA SCT030 BKN050
TAF del 01/07/2022 a las 11:00 UTC
Para mayor información visite www.meteochile.cl
Período de validez: desde el 01 a las 12:00 UTC hasta el 01 a las 24:00 UTC
Viento: dirección variable, velocidad 2 nudos
Visibilidad: 10 km o más
Nubes: Nubosidad parcial a 5000 pies sobre el nivel del aeródromo
Nubes: Nublado a 10000 pies sobre el nivel del aeródromo
Temperatura máxima: 12ºC el 01 a las 18:00 UTC
Temperatura mínima: 4ºC el 01 a las 12:00 UTC
Se espera en forma temporal entre las 12:00 UTC del 01 y las 16:00 UTC del 01:
Viento: dirección 180 grados, velocidad 8 nudos
Visibilidad: 7000 metros
Lluvia
Nubes: Nublado a 3000 pies sobre el nivel del aeródromo
Nubes: Nublado a 5000 pies sobre el nivel del aeródromo
Se espera un cambio entre las 16:00 UTC del 01 y las 18:00 UTC del 01, :
Visibilidad: 10 km o más
ChubascosLluvia
Nubes: Nubosidad parcial a 3000 pies sobre el nivel del aeródromo
Nubes: Nublado a 5000 pies sobre el nivel del aeródromo